This is the latest recevied weather packets stored in our database for station/object ED3YAB-7. If no packets are shown the sender has not sent any weather packets the latest 10 day(s).
| Time | Temp. | Humidity | Pressure | Rain* | Wind** | Luminosity | Snow |
|---|---|---|---|---|---|---|---|
| 1778219291 | 10.56° C | 64% | 1018.3 hPa | - | - | - | - |
| 1778218094 | 10° C | 66% | 1018.1 hPa | - | - | - | - |
| 1778216891 | 9.44° C | 67% | 1017.9 hPa | - | - | - | - |
| 1778215691 | 8.89° C | 69% | 1017.8 hPa | - | - | - | - |
| 1778214491 | 9.44° C | 69% | 1017.7 hPa | - | - | - | - |
| 1778213292 | 8.89° C | 69% | 1017.6 hPa | - | - | - | - |
| 1778212092 | 8.89° C | 68% | 1017.5 hPa | - | - | - | - |
| 1778210892 | 10° C | 66% | 1017.5 hPa | - | - | - | - |
| 1778209692 | 10° C | 66% | 1017.6 hPa | - | - | - | - |
| 1778208492 | 10.56° C | 65% | 1017.6 hPa | - | - | - | - |
| 1778207292 | 10.56° C | 66% | 1017.7 hPa | - | - | - | - |
| 1778206091 | 10.56° C | 66% | 1017.8 hPa | - | - | - | - |
| 1778204899 | 11.67° C | 66% | 1017.9 hPa | - | - | - | - |
| 1778203691 | 11.11° C | 66% | 1018 hPa | - | - | - | - |
| 1778202491 | 11.67° C | 66% | 1018.2 hPa | - | - | - | - |
| 1778201291 | 12.78° C | 63% | 1018.3 hPa | - | - | - | - |
| 1778200091 | 12.78° C | 64% | 1018.2 hPa | - | - | - | - |
| 1778198891 | 12.78° C | 64% | 1018.5 hPa | - | - | - | - |
| 1778197698 | 12.22° C | 65% | 1018.5 hPa | - | - | - | - |
| 1778196490 | 12.22° C | 65% | 1018.7 hPa | - | - | - | - |
| 1778195290 | 12.22° C | 65% | 1018.8 hPa | - | - | - | - |
| 1778194090 | 12.22° C | 64% | 1019 hPa | - | - | - | - |
| 1778192890 | 12.78° C | 64% | 1019.1 hPa | - | - | - | - |
| 1778191695 | 13.33° C | 62% | 1019.2 hPa | - | - | - | - |
| 1778190495 | 12.78° C | 63% | 1019.3 hPa | - | - | - | - |
* Rain since midnight (hover to see other rain measurements)
** Current wind speed in m/s (hover to see current wind gust speed)